Latest Weather Observations for Cape Grim

IDT60801

Issued at 6:02 am EDT Saturday 10 December 2016 (issued every 30 minutes, with the page automatically refreshed every 10 minutes)

About weather observations | Map of weather stations | Latest weather observations for TAS | Other Formats
Station Details ID: 091331 Name: CAPE GRIM Lat: -40.68 Lon: 144.69 Height: 86.0 m
Data from the previous 72 hours. | See also: Recent months at Cape Grim
Date/Time
EDT
Temp
°C
App
Temp
°C
Dew
Point
°C
Rel
Hum
%
Delta-T
°C
Wind Press
QNH
hPa
Press
MSL
hPa
Rain since
9am
mm
Dir  Spd
km/h
Gust
km/h
Spd
kts
Gust
kts
10/06:00am 12.1 7.9 8.4 78 1.8 W 20 41 11 22 1019.6 - -
10/05:30am 11.2 5.5 8.4 83 1.4 SW 28 43 15 23 1019.6 1019.5 0.6
10/05:00am 11.8 5.9 7.3 74 2.2 WSW 28 46 15 25 1019.4 1019.3 0.4
10/04:59am 11.9 6.0 7.4 74 2.2 WSW 28 46 15 25 1019.4 1019.3 0.4
10/04:30am 12.1 6.4 6.8 70 2.5 SW 26 44 14 24 1019.1 1019.0 0.4
10/04:00am 12.1 7.7 7.4 73 2.3 WSW 20 37 11 20 1019.1 1019.0 0.4
10/03:30am 11.9 7.5 6.6 70 2.5 WSW 19 30 10 16 1019.2 1019.1 0.4
10/03:00am 11.6 5.0 5.9 68 2.7 SW 30 35 16 19 1019.3 1019.2 0.4
10/02:30am 11.6 5.1 6.7 72 2.3 SW 30 39 16 21 1019.4 1019.3 0.4
10/02:00am 11.6 6.7 6.7 72 2.3 WSW 22 43 12 23 1019.6 1019.5 0.4
10/01:30am 11.3 6.0 6.6 73 2.2 SW 24 39 13 21 1019.7 1019.6 0.4
10/01:00am 11.4 6.5 7.1 75 2.1 SW 22 35 12 19 1019.9 1019.8 0.4
10/12:30am 11.1 5.0 6.6 74 2.1 SW 28 37 15 20 1020.0 1019.9 0.4
10/12:00am 11.1 7.1 6.8 75 2.0 WSW 17 33 9 18 1020.2 1020.1 0.4
 
Date/Time
EDT
Temp
°C
App
Temp
°C
Dew
Point
°C
Rel
Hum
%
Delta-T
°C
Wind Press
QNH
hPa
Press
MSL
hPa
Rain since
9am
mm
Dir  Spd
km/h
Gust
km/h
Spd
kts
Gust
kts
09/11:30pm 10.5 3.2 7.2 80 1.6 SW 35 46 19 25 1020.3 1020.2 0.4
09/11:00pm 10.9 4.6 7.4 79 1.7 SW 30 39 16 21 1020.2 1020.1 0.2
09/10:30pm 10.7 3.6 8.1 84 1.3 SW 35 46 19 25 1020.1 1020.0 0.2
09/10:00pm 11.3 5.2 8.2 81 1.5 SW 30 43 16 23 1019.8 1019.7 0.0
09/09:30pm 11.0 4.1 7.3 78 1.8 SW 33 52 18 28 1019.5 1019.4 0.0
09/09:25pm 11.4 4.6 7.1 75 2.1 SW 32 50 17 27 1019.3 1019.2 0.0
09/09:00pm 11.1 4.8 7.2 77 1.9 SW 30 43 16 23 1019.2 1019.1 0.0
09/08:30pm 11.3 3.4 8.0 80 1.6 SW 39 57 21 31 1019.0 1018.9 0.0
09/08:24pm 11.7 3.9 6.8 72 2.3 SW 37 57 20 31 1018.8 1018.7 0.0
09/08:00pm 11.6 3.1 6.9 73 2.2 SW 41 52 22 28 1018.7 1018.6 0.0
09/07:30pm 11.3 1.6 5.6 68 2.6 SW 46 57 25 31 1018.3 1018.2 0.0
09/07:00pm 11.5 2.0 6.6 72 2.3 SW 46 57 25 31 1018.0 1017.9 0.0
09/06:30pm 11.0 2.8 6.7 75 2.0 SW 39 54 21 29 1017.6 1017.6 0.0
09/06:20pm 10.9 2.4 7.0 77 1.9 SW 41 59 22 32 1017.4 1017.4 0.0
09/06:00pm 11.3 1.7 6.2 71 2.4 SW 46 57 25 31 1017.2 1017.2 0.0
09/05:30pm 11.3 2.3 7.2 76 2.0 SW 44 63 24 34 1016.9 1016.9 0.0
09/05:00pm 12.5 2.3 6.8 68 2.7 SW 50 61 27 33 1016.7 1016.7 0.0
09/04:34pm 10.6 1.3 7.7 82 1.4 SW 46 65 25 35 1016.6 1016.6 0.0
09/04:30pm 10.3 0.6 7.5 83 1.3 SW 48 65 26 35 1016.6 1016.6 0.0
09/04:06pm 11.2 1.2 6.3 72 2.3 SW 48 67 26 36 1016.3 1016.3 0.0
09/04:00pm 11.2 0.9 6.3 72 2.3 SW 50 65 27 35 1016.3 1016.3 0.0
09/03:30pm 11.8 0.9 5.7 66 2.8 SW 52 65 28 35 1016.0 1016.0 0.0
09/03:00pm 12.5 1.9 6.8 68 2.7 SW 52 67 28 36 1015.7 1015.7 0.0
09/02:30pm 12.9 1.8 6.5 65 3.1 SW 54 67 29 36 1015.4 1015.4 0.0
09/02:11pm 12.3 2.2 7.2 71 2.5 SW 50 69 27 37 1015.2 1015.2 0.0
09/02:00pm 11.9 0.6 7.2 73 2.3 SW 56 70 30 38 1015.1 1015.1 0.0
09/01:36pm 11.5 0.3 5.8 68 2.7 SW 54 74 29 40 1014.9 1014.9 0.0
09/01:30pm 12.6 2.0 7.1 69 2.7 SW 52 69 28 37 1014.9 1014.9 0.0
09/01:00pm 12.6 1.1 6.4 66 3.0 SW 56 74 30 40 1014.4 1014.4 0.0
09/12:56pm 12.2 0.4 5.6 64 3.1 SW 57 76 31 41 1014.4 1014.4 0.0
09/12:30pm 11.9 0.0 5.3 64 3.1 SW 57 69 31 37 1014.2 1014.2 0.0
09/12:03pm 11.5 0.2 5.6 67 2.7 SW 54 72 29 39 1013.8 1013.8 0.0
09/12:00pm 11.7 0.0 5.3 65 3.0 SW 56 69 30 37 1013.8 1013.8 0.0
09/11:30am 12.0 -0.5 5.9 66 2.9 SW 61 80 33 43 1013.3 1013.2 0.0
09/11:00am 11.8 -0.5 5.0 63 3.1 SW 59 80 32 43 1012.8 1012.7 0.0
09/10:30am 11.5 -2.1 4.3 61 3.3 SW 65 83 35 45 1012.2 1012.1 0.0
09/10:00am 11.3 -1.4 5.2 66 2.8 SW 61 83 33 45 1012.1 1012.0 0.0
09/09:34am 11.6 -1.3 5.7 67 2.8 SW 63 82 34 44 1011.7 1011.6 0.0
09/09:30am 11.4 -2.0 5.3 66 2.8 SW 65 82 35 44 1011.7 1011.6 0.0
09/09:00am 10.7 -1.1 5.0 68 2.6 SW 56 78 30 42 1011.2 1011.1 2.4
09/08:30am 10.7 -2.3 5.3 69 2.5 SW 63 83 34 45 1010.8 1010.7 2.4
09/08:00am 10.5 -2.6 5.1 69 2.5 SW 63 83 34 45 1010.2 1010.1 2.4
09/07:30am 9.9 -2.4 5.1 72 2.2 SSW 59 85 32 46 1009.6 1009.5 2.4
09/07:00am 9.8 -3.8 6.0 77 1.8 SW 67 85 36 46 1008.7 1008.6 2.4
09/06:30am 10.1 -1.5 6.6 79 1.6 SW 57 82 31 44 1008.0 1007.9 2.4
09/06:00am 9.8 -2.0 5.6 75 1.9 SW 57 78 31 42 1007.4 1007.3 2.4
09/05:52am 9.8 -2.0 5.6 75 1.9 SW 57 76 31 41 1007.4 1007.3 2.2
09/05:50am 9.7 -2.9 5.5 75 1.9 SW 61 82 33 44 1007.3 1007.2 2.2
09/05:30am 9.7 -4.2 4.5 70 2.3 SW 67 85 36 46 1006.8 1006.7 2.2
09/05:02am 8.8 -4.2 5.4 79 1.5 SW 63 85 34 46 1006.5 1006.4 2.2
09/05:00am 10.2 -3.3 6.5 78 1.7 SW 67 85 36 46 1006.5 1006.4 2.2
09/04:30am 9.6 -5.9 3.6 66 2.6 SW 74 95 40 51 1005.8 1005.7 2.2
09/04:19am 10.5 -3.8 5.7 72 2.2 SW 70 95 38 51 1005.3 1005.3 2.2
09/04:00am 10.1 -4.9 4.0 66 2.7 SW 72 87 39 47 1005.2 1005.2 2.2
09/03:32am 10.2 -3.9 5.6 73 2.1 SW 69 87 37 47 1004.7 1004.7 2.2
09/03:30am 10.4 -3.7 6.4 76 1.9 SW 70 87 38 47 1004.8 1004.8 2.2
09/03:00am 9.8 -3.8 6.0 77 1.8 SW 67 87 36 47 1004.6 1004.6 2.2
09/02:52am 9.2 -4.4 6.3 82 1.3 SW 67 91 36 49 1004.6 1004.6 2.2
09/02:49am 9.1 -5.4 6.5 84 1.2 SW 72 91 39 49 1004.5 1004.5 2.2
09/02:42am 8.6 -6.7 6.4 86 1.0 SW 76 102 41 55 1004.3 1004.3 2.2
09/02:39am 8.4 -6.3 5.3 81 1.4 SW 72 102 39 55 1004.1 1004.1 2.0
09/02:33am 10.4 -3.4 5.4 71 2.3 SW 67 85 36 46 1004.1 1004.1 1.8
09/02:30am 10.5 -3.8 5.5 71 2.3 SW 70 87 38 47 1004.1 1004.1 1.8
09/02:00am 10.4 -3.7 5.4 71 2.3 SW 69 89 37 48 1003.9 1003.9 1.8
09/01:30am 9.9 -4.0 6.4 79 1.6 SW 69 93 37 50 1003.6 1003.5 1.6
09/01:01am 10.7 -2.8 6.6 76 1.9 SW 67 85 36 46 1003.1 1003.0 1.6
09/01:00am 10.6 -3.3 6.4 75 2.0 SW 69 85 37 46 1003.1 1003.0 1.6
09/12:30am 10.1 -3.2 7.7 85 1.2 SW 67 91 36 49 1002.9 1002.8 1.6
09/12:00am 11.1 -3.2 7.4 78 1.8 SW 72 96 39 52 1002.1 1002.0 1.4
 
Date/Time
EDT
Temp
°C
App
Temp
°C
Dew
Point
°C
Rel
Hum
%
Delta-T
°C
Wind Press
QNH
hPa
Press
MSL
hPa
Rain since
9am
mm
Dir  Spd
km/h
Gust
km/h
Spd
kts
Gust
kts
08/11:30pm 11.4 -1.1 7.7 78 1.8 SW 63 91 34 49 1001.8 1001.7 1.4
08/11:00pm 11.7 -1.2 7.8 77 1.9 SW 65 91 35 49 1001.2 1001.1 1.4
08/10:30pm 11.9 -1.0 7.6 75 2.1 SW 65 89 35 48 1000.7 1000.6 1.4
08/10:00pm 11.3 -2.3 8.5 83 1.4 SW 70 91 38 49 1000.2 1000.1 1.4
08/09:30pm 11.4 -2.1 8.1 80 1.6 SW 69 95 37 51 999.4 999.3 1.4
08/09:00pm 11.6 -1.8 8.5 81 1.5 SW 69 91 37 49 998.7 998.6 1.4
08/08:30pm 11.9 -1.5 8.6 80 1.6 SW 69 91 37 49 997.7 997.6 1.4
08/08:00pm 12.2 0.5 9.2 82 1.5 SW 61 93 33 50 996.7 996.6 1.4
08/07:32pm 11.7 -0.5 10.4 92 0.7 SW 65 95 35 51 995.9 995.8 1.4
08/07:30pm 11.4 -0.5 10.1 92 0.7 SW 63 93 34 50 995.7 995.6 1.4
08/07:14pm 12.1 2.7 10.2 88 1.0 WSW 50 87 27 47 995.1 995.0 1.0
08/07:00pm 12.5 5.1 11.1 91 0.7 WSW 41 76 22 41 994.7 994.6 1.0
08/06:40pm 12.4 3.9 10.6 89 0.9 W 46 72 25 39 994.0 993.8 1.0
08/06:30pm 12.3 2.6 10.5 89 0.9 W 52 76 28 41 993.6 993.5 1.0
08/06:00pm 12.8 3.5 10.5 86 1.2 W 50 78 27 42 992.8 992.7 1.0
08/05:30pm 13.1 3.6 9.7 80 1.7 W 50 72 27 39 992.0 991.9 1.0
08/05:00pm 13.1 4.0 9.7 80 1.8 W 48 78 26 42 991.7 991.6 1.0
08/04:30pm 13.0 3.3 9.1 77 2.0 W 50 69 27 37 991.2 991.1 1.0
08/04:00pm 13.2 3.2 9.5 78 1.9 W 52 72 28 39 990.5 990.4 1.0
08/03:30pm 13.7 3.5 9.9 78 2.0 W 54 78 29 42 989.9 989.8 0.8
08/03:00pm 14.9 3.4 11.5 80 1.9 W 63 82 34 44 989.1 989.0 0.8
08/02:30pm 15.0 4.5 12.3 84 1.5 WNW 59 85 32 46 988.5 988.4 0.8
08/02:00pm 14.3 1.2 10.7 79 1.9 NW 70 96 38 52 988.8 988.7 0.8
08/01:30pm 14.9 1.8 10.5 75 2.3 NW 70 96 38 52 989.0 988.9 0.8
08/01:00pm 14.8 2.5 10.0 73 2.5 NW 65 91 35 49 989.7 989.6 0.8
08/12:30pm 15.0 5.0 10.6 75 2.3 NW 54 80 29 43 990.1 990.0 0.8
08/12:00pm 15.1 3.9 9.9 71 2.7 NW 59 83 32 45 990.6 990.5 0.8
08/11:30am 15.6 5.3 11.2 75 2.4 NW 56 76 30 41 990.8 990.7 0.8
08/11:00am 15.4 5.6 11.6 78 2.1 NW 54 72 29 39 991.0 990.9 0.8
08/10:30am 14.0 4.1 11.2 83 1.5 NW 54 72 29 39 990.9 990.8 0.8
08/10:16am 14.2 4.4 12.6 90 0.9 NW 56 76 30 41 990.7 990.6 0.8
08/10:06am 14.5 6.0 13.2 92 0.7 NW 50 82 27 44 990.6 990.5 0.8
08/10:00am 15.4 7.7 14.4 94 0.6 NNW 48 59 26 32 990.6 990.5 0.8
08/09:30am 15.6 6.8 14.6 94 0.6 N 54 69 29 37 990.6 990.5 0.2
08/09:08am 15.7 6.4 14.6 93 0.6 N 57 76 31 41 990.4 990.3 0.0
08/09:03am 15.8 6.0 14.5 92 0.7 N 59 72 32 39 990.4 990.3 0.0
08/09:00am 15.9 6.2 14.6 92 0.8 N 59 72 32 39 990.4 990.3 10.6
08/08:36am 15.7 6.8 14.2 91 0.9 N 54 72 29 39 990.6 990.5 10.6
08/08:30am 15.5 6.1 14.0 91 0.8 N 56 72 30 39 990.7 990.6 10.6
08/08:00am 15.2 6.7 13.2 88 1.1 NNE 50 72 27 39 991.4 991.3 8.8
08/07:55am 15.4 7.3 13.2 87 1.2 NE 48 72 26 39 991.6 991.5 8.2
08/07:49am 14.9 7.8 13.3 90 0.9 NE 43 63 23 34 991.7 991.6 8.0
08/07:30am 14.8 6.4 13.5 92 0.7 ENE 50 59 27 32 992.6 992.5 7.8
08/07:00am 14.8 6.9 13.7 93 0.6 ENE 48 57 26 31 993.5 993.4 6.2
08/06:30am 14.6 6.2 13.5 93 0.6 ENE 50 67 27 36 993.9 993.7 6.2
08/06:00am 14.5 7.2 13.4 93 0.6 ENE 44 57 24 31 995.8 995.7 4.0
08/05:30am 14.2 6.8 13.1 93 0.6 ENE 44 56 24 30 996.1 996.0 2.6
08/05:00am 14.2 4.8 12.6 90 0.9 E 54 69 29 37 996.1 996.0 1.0
08/04:30am 14.0 5.2 12.2 89 1.0 ENE 50 63 27 34 996.7 996.6 0.6
08/04:00am 14.0 4.3 11.7 86 1.2 ENE 54 69 29 37 996.7 996.6 0.0
08/03:30am 14.1 5.0 11.4 84 1.4 ENE 50 63 27 34 998.3 998.2 0.0
08/03:00am 14.3 4.3 10.9 80 1.8 ENE 54 69 29 37 998.6 998.5 0.0
08/02:31am 14.1 3.8 10.9 81 1.7 ENE 56 74 30 40 998.9 998.8 0.0
08/02:30am 14.1 4.2 11.1 82 1.6 ENE 54 69 29 37 998.9 998.8 0.0
08/02:00am 14.0 3.2 11.2 83 1.5 ENE 59 72 32 39 1000.2 1000.1 0.0
08/01:49am 14.2 4.3 11.0 81 1.7 ENE 54 74 29 40 1000.4 1000.3 0.0
08/01:30am 13.9 3.6 10.9 82 1.6 ENE 56 72 30 39 1000.7 1000.6 0.0
08/01:23am 14.1 4.3 11.3 83 1.5 ENE 54 72 29 39 1001.3 1001.2 0.0
08/01:00am 14.2 5.5 11.2 82 1.6 ENE 48 63 26 34 1002.4 1002.3 0.0
08/12:30am 14.1 4.0 10.5 79 1.9 NE 54 65 29 35 1003.3 1003.2 0.0
08/12:00am 13.8 5.2 10.2 79 1.9 NE 46 61 25 33 1003.8 1003.7 0.0
 
Date/Time
EDT
Temp
°C
App
Temp
°C
Dew
Point
°C
Rel
Hum
%
Delta-T
°C
Wind Press
QNH
hPa
Press
MSL
hPa
Rain since
9am
mm
Dir  Spd
km/h
Gust
km/h
Spd
kts
Gust
kts
07/11:30pm 13.7 5.5 10.3 80 1.8 NE 44 57 24 31 1004.5 1004.5 0.0
07/11:00pm 13.6 6.8 10.8 83 1.5 ENE 37 46 20 25 1005.3 1005.3 0.0
07/10:30pm 13.4 7.6 10.8 84 1.4 ENE 32 43 17 23 1006.4 1006.3 0.0
07/10:00pm 13.4 7.5 11.1 86 1.2 ENE 33 39 18 21 1006.9 1006.8 0.0
07/09:30pm 13.1 8.1 11.0 87 1.1 ENE 28 33 15 18 1006.9 1006.8 0.0
07/09:00pm 13.0 8.7 10.7 86 1.2 ENE 24 28 13 15 1007.6 1007.5 0.0
07/08:30pm 13.3 9.7 10.5 83 1.5 NE 20 22 11 12 1008.2 1008.1 0.0
07/08:00pm 13.9 10.5 10.5 80 1.8 NE 19 20 10 11 1008.7 1008.6 0.0
07/07:30pm 14.8 13.0 11.0 78 2.0 NNE 11 15 6 8 1009.2 1009.1 0.0
07/07:00pm 15.3 13.0 11.7 79 2.0 N 15 17 8 9 1010.0 1009.9 0.0
07/06:30pm 15.4 13.2 12.0 80 1.9 N 15 19 8 10 1010.3 1010.2 0.0
07/06:00pm 15.6 13.5 12.4 81 1.8 NNW 15 20 8 11 1010.7 1010.6 0.0
07/05:30pm 15.9 13.8 12.5 80 1.9 NNW 15 20 8 11 1011.2 1011.1 0.0
07/05:00pm 16.1 13.8 13.0 82 1.7 NNW 17 19 9 10 1011.5 1011.4 0.0
07/04:30pm 16.6 14.8 13.3 81 1.9 NW 15 20 8 11 1011.8 1011.7 0.0
07/04:00pm 15.7 11.6 12.8 83 1.6 NNW 26 32 14 17 1012.1 1012.0 0.0
07/03:30pm 17.0 14.1 14.1 83 1.7 NNW 22 30 12 16 1012.4 1012.3 0.0
07/03:00pm 16.0 12.9 12.2 78 2.1 NNW 20 24 11 13 1012.4 1012.3 0.0
07/02:30pm 16.3 13.6 12.8 80 1.9 NNW 19 24 10 13 1012.7 1012.6 0.0
07/02:00pm 16.5 13.6 13.0 80 2.0 NW 20 28 11 15 1013.0 1012.9 0.0
07/01:30pm 16.4 13.1 12.9 80 2.0 NNW 22 28 12 15 1012.9 1012.8 0.0
07/01:00pm 15.8 12.6 12.0 78 2.1 NW 20 32 11 17 1013.2 1013.1 0.0
07/12:30pm 16.3 13.4 13.0 81 1.8 NNW 20 28 11 15 1013.4 1013.3 0.0
07/12:00pm 15.5 11.7 12.4 82 1.7 NW 24 32 13 17 1013.5 1013.4 0.0
07/11:30am 15.2 11.4 12.3 83 1.6 NW 24 35 13 19 1013.5 1013.4 0.0
07/11:00am 15.6 12.2 12.5 82 1.7 NW 22 30 12 16 1013.6 1013.5 0.0
07/10:30am 14.7 10.7 11.7 82 1.6 NW 24 32 13 17 1013.6 1013.5 0.0
07/10:00am 15.4 11.5 12.2 81 1.8 NW 24 32 13 17 1013.7 1013.7 0.0
07/09:30am 15.2 12.0 11.8 80 1.8 WNW 20 30 11 16 1013.9 1013.9 0.0
07/09:00am 15.1 11.0 11.5 79 1.9 WNW 24 30 13 16 1013.8 1013.8 0.0
07/08:30am 15.1 10.6 11.3 78 2.0 WNW 26 32 14 17 1013.7 1013.7 0.0
07/08:00am 14.2 9.6 11.0 81 1.7 WNW 26 32 14 17 1013.7 1013.7 0.0
07/07:30am 14.0 9.7 10.8 81 1.7 WNW 24 32 13 17 1013.4 1013.3 0.0
07/07:00am 14.0 9.4 11.2 83 1.5 W 26 33 14 18 1013.4 1013.3 0.0
07/06:30am 13.4 8.3 10.6 83 1.5 W 28 35 15 19 1013.2 1013.1 0.0

Other Formats:

Comma delimited format used in spreadsheet applications
http://www.bom.gov.au/fwo/IDT60801/IDT60801.95954.axf

JavaScript Object Notation format (JSON) in row-major order
http://www.bom.gov.au/fwo/IDT60801/IDT60801.95954.json